createdAt,value
2019-01-21T00:01:25.636Z,25.83
2019-01-21T00:04:32.515Z,23.10
2019-01-21T00:07:39.130Z,21.10
2019-01-21T00:10:46.807Z,25.07
2019-01-21T00:13:54.228Z,19.00
2019-01-21T00:17:00.819Z,27.53
2019-01-21T00:20:07.879Z,28.20
2019-01-21T00:23:14.298Z,19.67
2019-01-21T00:26:20.817Z,21.67
2019-01-21T00:29:28.109Z,18.63
2019-01-21T00:32:34.807Z,19.90
2019-01-21T00:35:41.518Z,22.93
2019-01-21T00:38:48.106Z,21.83
2019-01-21T00:41:54.648Z,24.97
2019-01-21T00:45:01.047Z,22.77
2019-01-21T00:48:07.344Z,24.53
2019-01-21T00:51:14.075Z,25.60
2019-01-21T00:54:20.637Z,22.37
2019-01-21T00:57:27.216Z,24.90
2019-01-21T01:00:33.827Z,28.17
2019-01-21T01:03:39.992Z,23.33
2019-01-21T01:06:46.619Z,27.37
2019-01-21T01:09:53.110Z,23.47
2019-01-21T01:13:00.222Z,27.27
2019-01-21T01:16:06.991Z,22.87
2019-01-21T01:19:13.938Z,19.50
2019-01-21T01:22:20.685Z,19.60
2019-01-21T01:25:27.612Z,21.73
2019-01-21T01:28:34.498Z,20.20
2019-01-21T01:31:41.590Z,27.00
2019-01-21T01:34:48.161Z,22.67
2019-01-21T01:37:55.178Z,18.33
2019-01-21T01:41:02.650Z,32.80
2019-01-21T01:44:09.653Z,42.90
2019-01-21T01:47:16.144Z,53.93
2019-01-21T01:50:22.974Z,59.53
2019-01-21T01:53:29.538Z,46.57
2019-01-21T01:56:36.950Z,42.20
2019-01-21T01:59:44.561Z,31.43
2019-01-21T02:02:51.184Z,30.27
2019-01-21T02:05:58.045Z,32.40
2019-01-21T02:09:07.128Z,31.90
2019-01-21T02:12:15.002Z,33.37
2019-01-21T02:15:21.656Z,32.80
2019-01-21T02:18:28.053Z,29.47
2019-01-21T02:21:37.558Z,29.20
2019-01-21T02:24:44.845Z,30.33
2019-01-21T02:28:28.113Z,33.73
2019-01-21T02:32:33.194Z,29.67
2019-01-21T02:36:24.653Z,29.57
2019-01-21T02:40:05.824Z,31.93
2019-01-21T02:43:42.047Z,20.70
2019-01-21T02:47:13.137Z,24.03
2019-01-21T02:50:37.373Z,24.63
2019-01-21T02:54:06.321Z,21.40
2019-01-21T02:57:39.070Z,32.33
2019-01-21T03:01:12.812Z,23.93
2019-01-21T03:05:12.456Z,22.70
2019-01-21T03:09:05.097Z,21.97
2019-01-21T03:13:04.150Z,25.57
2019-01-21T03:17:03.754Z,24.80
2019-01-21T03:20:30.334Z,24.87
2019-01-21T03:24:33.243Z,20.83
2019-01-21T03:28:18.346Z,20.73
2019-01-21T03:32:10.027Z,22.97
2019-01-21T03:35:52.594Z,20.83
2019-01-21T03:39:28.597Z,17.07
2019-01-21T03:43:03.176Z,25.20
2019-01-21T03:46:53.481Z,22.97
2019-01-21T03:50:33.118Z,18.80
2019-01-21T03:54:10.786Z,31.63
2019-01-21T03:58:22.706Z,20.70
2019-01-21T04:02:17.744Z,24.77
2019-01-21T04:06:12.650Z,25.17
2019-01-21T04:09:59.485Z,31.20
2019-01-21T04:13:43.986Z,21.83
2019-01-21T04:17:17.820Z,30.17
2019-01-21T04:21:05.706Z,26.10
2019-01-21T04:24:54.579Z,28.37
2019-01-21T04:28:31.778Z,27.00
2019-01-21T04:32:13.898Z,26.90
2019-01-21T04:35:58.553Z,28.47
2019-01-21T04:39:32.998Z,28.33
2019-01-21T04:43:05.756Z,25.23
2019-01-21T04:46:44.811Z,39.90
2019-01-21T04:50:20.448Z,52.30
2019-01-21T04:54:06.467Z,32.13
2019-01-21T04:57:48.356Z,54.50
2019-01-21T05:01:22.254Z,38.60
2019-01-21T05:05:07.841Z,40.50
2019-01-21T05:08:55.635Z,39.10
2019-01-21T05:12:44.181Z,31.03
2019-01-21T05:16:50.083Z,29.10
2019-01-21T05:20:33.718Z,35.27
2019-01-21T05:24:02.331Z,27.23
2019-01-21T05:27:49.114Z,41.70
2019-01-21T05:31:36.588Z,46.33
2019-01-21T05:35:22.685Z,81.13
2019-01-21T05:38:53.133Z,46.03
2019-01-21T05:43:01.897Z,41.97
2019-01-21T05:46:20.536Z,41.40
2019-01-21T05:50:21.578Z,40.07
2019-01-21T05:54:06.413Z,73.30
2019-01-21T05:58:24.276Z,53.00
2019-01-21T06:02:16.487Z,32.17
2019-01-21T06:05:38.352Z,39.50
2019-01-21T06:09:20.302Z,35.10
2019-01-21T06:12:44.027Z,31.10
2019-01-21T06:16:14.290Z,34.37
2019-01-21T06:19:56.656Z,39.03
2019-01-21T06:23:40.099Z,29.97
2019-01-21T06:27:21.824Z,32.90
2019-01-21T06:30:41.706Z,31.53
2019-01-21T06:34:22.295Z,28.37
2019-01-21T06:38:12.322Z,30.80
2019-01-21T06:42:04.946Z,31.73
2019-01-21T06:45:57.446Z,32.03
2019-01-21T06:49:37.624Z,40.70
2019-01-21T06:53:33.955Z,29.10
2019-01-21T06:57:39.515Z,35.00
2019-01-21T07:01:25.353Z,40.90
2019-01-21T07:05:06.033Z,42.27
2019-01-21T07:08:38.908Z,30.60
2019-01-21T07:12:29.966Z,45.47
2019-01-21T07:16:11.584Z,40.13
2019-01-21T07:20:04.665Z,51.17
2019-01-21T07:24:02.430Z,35.87
2019-01-21T07:27:23.958Z,33.90
2019-01-21T07:31:11.085Z,33.37
2019-01-21T07:35:19.458Z,31.77
2019-01-21T07:39:12.774Z,29.87
2019-01-21T07:42:34.073Z,43.80
2019-01-21T07:46:14.194Z,40.77
2019-01-21T07:49:57.554Z,40.73
2019-01-21T07:54:09.446Z,31.17
2019-01-21T07:57:55.412Z,34.77
2019-01-21T08:01:20.252Z,31.57
2019-01-21T08:05:10.505Z,36.70
2019-01-21T08:08:36.424Z,32.10
2019-01-21T08:12:13.933Z,40.35
2019-01-21T08:16:04.864Z,35.60
2019-01-21T08:19:25.915Z,33.97
2019-01-21T08:23:31.666Z,32.57
2019-01-21T08:27:16.889Z,36.50
2019-01-21T08:31:16.837Z,39.43
2019-01-21T08:35:01.314Z,39.63
2019-01-21T08:38:45.913Z,63.03
2019-01-21T08:42:31.047Z,43.13
2019-01-21T08:46:08.115Z,38.67
2019-01-21T08:49:33.227Z,39.77
2019-01-21T08:53:20.416Z,33.83
2019-01-21T08:57:17.563Z,41.43
2019-01-21T09:01:04.373Z,42.00
2019-01-21T09:04:52.218Z,47.07
2019-01-21T09:08:52.086Z,39.00
2019-01-21T09:12:26.005Z,40.50
2019-01-21T09:16:01.269Z,40.53
2019-01-21T09:19:47.633Z,41.77
2019-01-21T09:23:38.826Z,40.00
2019-01-21T09:27:33.951Z,48.37
2019-01-21T09:31:37.621Z,51.30
2019-01-21T09:35:41.102Z,41.33
2019-01-21T09:39:21.184Z,39.60
2019-01-21T09:42:50.670Z,43.37
2019-01-21T09:46:56.556Z,51.70
2019-01-21T09:50:04.007Z,48.93
2019-01-21T09:53:11.146Z,42.70
2019-01-21T09:56:18.173Z,40.40
2019-01-21T09:59:26.149Z,43.47
2019-01-21T10:02:42.148Z,43.00
2019-01-21T10:05:50.791Z,34.53
2019-01-21T10:09:09.857Z,39.40
2019-01-21T10:12:38.373Z,46.47
2019-01-21T10:16:13.639Z,82.30
2019-01-21T10:20:00.739Z,47.10
2019-01-21T10:23:55.249Z,33.97
2019-01-21T10:27:27.282Z,38.33
2019-01-21T10:31:23.003Z,79.03
2019-01-21T10:35:10.444Z,65.90
2019-01-21T10:38:52.991Z,48.40
2019-01-21T10:42:18.261Z,47.60
2019-01-21T10:46:04.862Z,27.63
2019-01-21T10:49:32.262Z,16.70
2019-01-21T10:53:11.297Z,14.40
2019-01-21T10:56:57.845Z,14.50
2019-01-21T11:00:37.289Z,25.73
2019-01-21T11:04:11.151Z,26.20
2019-01-21T11:08:05.338Z,50.53
2019-01-21T11:11:57.417Z,42.23
2019-01-21T11:15:25.737Z,46.60
2019-01-21T11:19:09.100Z,48.33
2019-01-21T11:22:31.315Z,33.03
2019-01-21T11:26:12.987Z,23.70
2019-01-21T11:29:43.138Z,17.00
2019-01-21T11:33:29.239Z,18.33
2019-01-21T11:37:00.097Z,18.23
2019-01-21T11:40:44.394Z,15.33
2019-01-21T11:44:33.838Z,18.47
2019-01-21T11:48:15.813Z,14.30
2019-01-21T11:52:09.104Z,18.20
2019-01-21T11:56:02.686Z,10.67
2019-01-21T11:59:25.407Z,12.77
2019-01-21T12:02:54.416Z,14.90
2019-01-21T12:06:10.149Z,15.73
2019-01-21T12:09:39.162Z,18.10
2019-01-21T12:13:05.126Z,17.47
2019-01-21T12:16:42.807Z,18.20
2019-01-21T12:20:28.663Z,17.57
2019-01-21T12:24:05.311Z,24.63
2019-01-21T12:27:50.062Z,17.37
2019-01-21T12:31:36.012Z,17.73
2019-01-21T12:34:59.626Z,19.40
2019-01-21T12:38:43.554Z,19.50
2019-01-21T12:42:21.462Z,22.93
2019-01-21T12:46:02.676Z,22.23
2019-01-21T12:49:38.679Z,22.50
2019-01-21T12:52:53.271Z,22.87
2019-01-21T12:56:36.988Z,28.03
2019-01-21T13:00:08.583Z,20.60
2019-01-21T13:03:56.410Z,17.83
2019-01-21T13:07:35.124Z,16.13
2019-01-21T13:11:09.567Z,16.70
2019-01-21T13:14:48.411Z,16.80
2019-01-21T13:18:14.581Z,18.80
2019-01-21T13:22:03.658Z,24.03
2019-01-21T13:25:38.566Z,17.07
2019-01-21T13:29:32.015Z,16.37
2019-01-21T13:33:29.242Z,27.17
2019-01-21T13:37:16.531Z,16.10
2019-01-21T13:41:04.880Z,19.80
2019-01-21T13:44:44.274Z,16.67
2019-01-21T13:48:49.914Z,19.40
2019-01-21T13:52:33.539Z,17.30
2019-01-21T13:56:15.004Z,19.33
2019-01-21T13:59:53.895Z,21.13
2019-01-21T14:03:49.218Z,23.43
2019-01-21T14:07:26.267Z,19.93
2019-01-21T14:10:48.969Z,18.53
2019-01-21T14:14:36.183Z,20.80
2019-01-21T14:18:28.234Z,21.80
2019-01-21T14:22:27.934Z,20.67
2019-01-21T14:26:04.776Z,28.63
2019-01-21T14:29:51.980Z,26.23
2019-01-21T14:33:35.398Z,25.87
2019-01-21T14:37:32.611Z,18.40
2019-01-21T14:41:12.327Z,18.73
2019-01-21T14:45:04.262Z,17.53
2019-01-21T14:48:24.433Z,21.70
2019-01-21T14:52:09.045Z,28.10
2019-01-21T14:56:05.033Z,22.40
2019-01-21T14:59:52.520Z,19.80
2019-01-21T15:03:46.467Z,19.70
2019-01-21T15:07:04.750Z,18.30
2019-01-21T15:11:05.673Z,21.93
2019-01-21T15:14:41.848Z,20.17
2019-01-21T15:18:30.915Z,21.60
2019-01-21T15:22:17.075Z,23.90
2019-01-21T15:26:07.650Z,25.50
2019-01-21T15:29:40.686Z,22.63
2019-01-21T15:33:30.574Z,24.73
2019-01-21T15:36:59.257Z,22.83
2019-01-21T15:40:42.942Z,26.53
2019-01-21T15:44:28.637Z,35.80
2019-01-21T15:48:13.163Z,30.73
2019-01-21T15:52:11.737Z,55.80
2019-01-21T15:56:17.613Z,57.40
2019-01-21T15:59:56.076Z,63.80
2019-01-21T16:03:21.159Z,45.67
2019-01-21T16:07:13.602Z,51.73
2019-01-21T16:10:41.568Z,39.07
2019-01-21T16:13:53.389Z,24.17
2019-01-21T16:17:16.984Z,29.77
2019-01-21T16:20:45.283Z,24.33
2019-01-21T16:24:22.105Z,20.60
2019-01-21T16:28:13.038Z,22.47
2019-01-21T16:31:34.146Z,27.20
2019-01-21T16:35:04.945Z,30.27
2019-01-21T16:38:40.072Z,32.07
2019-01-21T16:42:02.498Z,34.20
2019-01-21T16:45:10.413Z,31.37
2019-01-21T16:48:16.957Z,34.23
2019-01-21T16:51:23.690Z,36.23
2019-01-21T16:54:30.229Z,37.63
2019-01-21T16:57:36.897Z,28.60
2019-01-21T17:00:44.325Z,26.80
2019-01-21T17:03:51.095Z,30.83
2019-01-21T17:06:57.984Z,52.60
2019-01-21T17:10:05.572Z,37.53
2019-01-21T17:13:13.050Z,35.83
2019-01-21T17:16:20.221Z,29.07
2019-01-21T17:19:26.898Z,34.10
2019-01-21T17:22:33.802Z,35.33
2019-01-21T17:25:40.397Z,53.93
2019-01-21T17:28:46.722Z,41.77
2019-01-21T17:31:54.000Z,52.43
2019-01-21T17:35:01.628Z,83.47
2019-01-21T17:38:09.132Z,64.00
2019-01-21T17:41:16.971Z,62.13
2019-01-21T17:44:24.337Z,56.50
2019-01-21T17:47:31.782Z,89.23
2019-01-21T17:50:39.356Z,98.83
2019-01-21T17:53:51.296Z,56.87
2019-01-21T17:56:55.140Z,41.53
2019-01-21T18:00:03.402Z,98.47
2019-01-21T18:03:11.491Z,67.23
2019-01-21T18:06:18.339Z,48.27
2019-01-21T18:09:25.225Z,60.53
2019-01-21T18:12:32.871Z,60.07
2019-01-21T18:15:41.048Z,57.10
2019-01-21T18:18:48.349Z,68.33
2019-01-21T18:21:57.958Z,65.70
2019-01-21T18:25:05.417Z,43.63
2019-01-21T18:28:11.968Z,46.47
2019-01-21T18:31:19.011Z,41.90
2019-01-21T18:34:25.978Z,45.33
2019-01-21T18:37:32.548Z,38.03
2019-01-21T18:40:39.530Z,32.07
2019-01-21T18:43:48.730Z,31.07
2019-01-21T18:46:55.474Z,33.57
2019-01-21T18:50:02.169Z,28.90
2019-01-21T18:53:09.248Z,30.67
2019-01-21T18:56:15.787Z,43.47
2019-01-21T18:59:27.797Z,39.80
2019-01-21T19:02:34.254Z,42.10
2019-01-21T19:05:43.566Z,40.60
2019-01-21T19:08:50.226Z,48.47
2019-01-21T19:11:58.778Z,37.63
2019-01-21T19:15:08.938Z,42.10
2019-01-21T19:18:15.963Z,41.33
2019-01-21T19:21:25.340Z,38.63
2019-01-21T19:24:32.223Z,38.60
2019-01-21T19:27:40.666Z,39.70
2019-01-21T19:30:47.415Z,38.90
2019-01-21T19:33:54.451Z,37.90
2019-01-21T19:37:01.202Z,39.30
2019-01-21T19:40:13.746Z,38.53
2019-01-21T19:43:20.580Z,39.93
2019-01-21T19:46:27.782Z,41.30
2019-01-21T19:49:35.414Z,45.20
2019-01-21T19:52:42.186Z,36.60
2019-01-21T19:55:48.766Z,39.30
2019-01-21T19:58:55.216Z,42.00
2019-01-21T20:02:02.528Z,45.33
2019-01-21T20:05:10.058Z,46.37
2019-01-21T20:08:16.738Z,38.07
2019-01-21T20:11:23.676Z,34.77
2019-01-21T20:14:31.054Z,36.43
2019-01-21T20:17:37.609Z,42.97
2019-01-21T20:20:44.593Z,35.13
2019-01-21T20:23:54.660Z,51.30
2019-01-21T20:27:02.991Z,33.67
2019-01-21T20:30:14.489Z,36.47
2019-01-21T20:33:21.275Z,34.97
2019-01-21T20:36:27.951Z,35.80
2019-01-21T20:39:34.510Z,40.40
2019-01-21T20:42:43.927Z,35.63
2019-01-21T20:45:52.116Z,34.60
2019-01-21T20:49:00.163Z,35.93
2019-01-21T20:52:13.924Z,45.17
2019-01-21T20:55:15.844Z,45.53
2019-01-21T20:58:22.652Z,50.53
2019-01-21T21:01:29.554Z,53.33
2019-01-21T21:04:36.709Z,48.97
2019-01-21T21:07:44.200Z,44.20
2019-01-21T21:10:52.584Z,42.33
2019-01-21T21:14:02.411Z,34.43
2019-01-21T21:17:09.155Z,47.10
2019-01-21T21:20:16.492Z,38.80
2019-01-21T21:23:24.609Z,36.87
2019-01-21T21:26:31.876Z,37.27
2019-01-21T21:29:40.411Z,34.43
2019-01-21T21:32:48.203Z,33.50
2019-01-21T21:35:55.572Z,33.57
2019-01-21T21:39:04.026Z,27.47
2019-01-21T21:42:12.707Z,34.50
2019-01-21T21:45:20.688Z,32.30
2019-01-21T21:48:31.911Z,38.57
2019-01-21T21:51:40.023Z,40.07
2019-01-21T21:54:47.545Z,44.10
2019-01-21T21:57:54.618Z,34.60
2019-01-21T22:01:01.722Z,31.53
2019-01-21T22:04:09.367Z,33.60
2019-01-21T22:07:16.080Z,31.40
2019-01-21T22:10:25.399Z,31.20
2019-01-21T22:13:33.554Z,41.67
2019-01-21T22:16:40.618Z,64.03
2019-01-21T22:19:47.560Z,45.50
2019-01-21T22:22:54.279Z,35.90
2019-01-21T22:26:01.919Z,39.10
2019-01-21T22:29:10.836Z,53.20
2019-01-21T22:32:17.853Z,54.23
2019-01-21T22:35:24.978Z,43.60
2019-01-21T22:38:32.500Z,38.50
2019-01-21T22:41:40.807Z,45.70
2019-01-21T22:44:47.627Z,28.90
2019-01-21T22:47:54.435Z,33.67
2019-01-21T22:51:00.712Z,31.43
2019-01-21T22:54:07.648Z,30.80
2019-01-21T22:57:14.174Z,26.70
2019-01-21T23:00:50.475Z,28.30
2019-01-21T23:03:57.315Z,28.83
2019-01-21T23:07:03.754Z,32.17
2019-01-21T23:10:11.023Z,25.43
2019-01-21T23:13:19.340Z,24.57
2019-01-21T23:16:26.604Z,27.50
2019-01-21T23:19:33.137Z,22.50
2019-01-21T23:22:40.155Z,24.27
2019-01-21T23:25:46.808Z,33.83
2019-01-21T23:28:53.392Z,25.90
2019-01-21T23:32:00.733Z,23.03
2019-01-21T23:35:07.955Z,24.50
2019-01-21T23:38:14.751Z,29.00
2019-01-21T23:41:22.760Z,29.07
2019-01-21T23:44:29.494Z,32.10
2019-01-21T23:47:36.415Z,29.20
2019-01-21T23:50:43.074Z,27.37
2019-01-21T23:53:49.578Z,22.97
2019-01-21T23:56:55.941Z,26.30
